sensor_id;sensor_type;location;lat;lon;timestamp;P1;durP1;ratioP1;P2;durP2;ratioP2
2522;SDS011;1272;53.332;9.860;2023-02-15T00:01:17;36.07;;;23.50;;
2522;SDS011;1272;53.332;9.860;2023-02-15T00:03:42;36.63;;;21.97;;
2522;SDS011;1272;53.332;9.860;2023-02-15T00:06:08;37.73;;;23.13;;
2522;SDS011;1272;53.332;9.860;2023-02-15T00:08:34;40.07;;;23.70;;
2522;SDS011;1272;53.332;9.860;2023-02-15T00:11:06;59.03;;;27.73;;
2522;SDS011;1272;53.332;9.860;2023-02-15T00:13:34;38.23;;;23.73;;
2522;SDS011;1272;53.332;9.860;2023-02-15T00:16:05;45.57;;;25.30;;
2522;SDS011;1272;53.332;9.860;2023-02-15T00:18:31;40.60;;;24.23;;
2522;SDS011;1272;53.332;9.860;2023-02-15T00:20:57;37.30;;;23.77;;
2522;SDS011;1272;53.332;9.860;2023-02-15T00:23:27;35.97;;;22.93;;
2522;SDS011;1272;53.332;9.860;2023-02-15T00:26:02;40.83;;;25.30;;
2522;SDS011;1272;53.332;9.860;2023-02-15T00:28:32;37.60;;;23.03;;
2522;SDS011;1272;53.332;9.860;2023-02-15T00:31:11;36.33;;;23.60;;
2522;SDS011;1272;53.332;9.860;2023-02-15T00:33:38;181.20;;;30.10;;
2522;SDS011;1272;53.332;9.860;2023-02-15T00:36:05;34.97;;;22.07;;
2522;SDS011;1272;53.332;9.860;2023-02-15T00:38:32;37.43;;;23.33;;
2522;SDS011;1272;53.332;9.860;2023-02-15T00:40:59;84.70;;;25.87;;
2522;SDS011;1272;53.332;9.860;2023-02-15T00:43:26;99.23;;;26.47;;
2522;SDS011;1272;53.332;9.860;2023-02-15T00:45:53;66.03;;;24.17;;
2522;SDS011;1272;53.332;9.860;2023-02-15T00:48:19;38.07;;;25.17;;
2522;SDS011;1272;53.332;9.860;2023-02-15T00:50:46;33.23;;;21.33;;
2522;SDS011;1272;53.332;9.860;2023-02-15T00:53:16;36.83;;;22.90;;
2522;SDS011;1272;53.332;9.860;2023-02-15T00:55:42;33.87;;;23.07;;
2522;SDS011;1272;53.332;9.860;2023-02-15T00:58:08;37.17;;;23.23;;
2522;SDS011;1272;53.332;9.860;2023-02-15T01:00:34;35.20;;;22.10;;
2522;SDS011;1272;53.332;9.860;2023-02-15T01:03:01;35.30;;;20.03;;
2522;SDS011;1272;53.332;9.860;2023-02-15T01:05:26;31.57;;;20.63;;
2522;SDS011;1272;53.332;9.860;2023-02-15T01:07:54;39.33;;;24.27;;
2522;SDS011;1272;53.332;9.860;2023-02-15T01:10:20;36.27;;;21.60;;
2522;SDS011;1272;53.332;9.860;2023-02-15T01:12:46;46.20;;;24.83;;
2522;SDS011;1272;53.332;9.860;2023-02-15T01:15:12;40.80;;;23.30;;
2522;SDS011;1272;53.332;9.860;2023-02-15T01:17:38;34.03;;;21.80;;
2522;SDS011;1272;53.332;9.860;2023-02-15T01:20:04;34.93;;;23.40;;
2522;SDS011;1272;53.332;9.860;2023-02-15T01:22:30;33.33;;;22.10;;
2522;SDS011;1272;53.332;9.860;2023-02-15T01:24:57;31.90;;;20.30;;
2522;SDS011;1272;53.332;9.860;2023-02-15T01:27:22;31.30;;;20.17;;
2522;SDS011;1272;53.332;9.860;2023-02-15T01:29:48;36.97;;;23.47;;
2522;SDS011;1272;53.332;9.860;2023-02-15T01:32:14;34.40;;;21.33;;
2522;SDS011;1272;53.332;9.860;2023-02-15T01:34:39;35.67;;;21.20;;
2522;SDS011;1272;53.332;9.860;2023-02-15T01:37:05;31.17;;;19.90;;
2522;SDS011;1272;53.332;9.860;2023-02-15T01:39:31;33.40;;;22.00;;
2522;SDS011;1272;53.332;9.860;2023-02-15T01:41:57;33.50;;;22.23;;
2522;SDS011;1272;53.332;9.860;2023-02-15T01:47:20;28.60;;;21.10;;
2522;SDS011;1272;53.332;9.860;2023-02-15T01:50:00;26.60;;;18.50;;
2522;SDS011;1272;53.332;9.860;2023-02-15T01:53:07;27.40;;;19.60;;
2522;SDS011;1272;53.332;9.860;2023-02-15T01:55:40;31.63;;;20.47;;
2522;SDS011;1272;53.332;9.860;2023-02-15T01:58:18;30.90;;;20.20;;
2522;SDS011;1272;53.332;9.860;2023-02-15T02:00:45;32.90;;;20.77;;
2522;SDS011;1272;53.332;9.860;2023-02-15T02:03:10;29.30;;;20.03;;
2522;SDS011;1272;53.332;9.860;2023-02-15T02:05:37;30.03;;;19.50;;
2522;SDS011;1272;53.332;9.860;2023-02-15T02:08:04;28.93;;;18.90;;
2522;SDS011;1272;53.332;9.860;2023-02-15T02:10:31;27.30;;;18.90;;
2522;SDS011;1272;53.332;9.860;2023-02-15T02:13:02;29.97;;;20.13;;
2522;SDS011;1272;53.332;9.860;2023-02-15T02:15:33;30.60;;;20.80;;
2522;SDS011;1272;53.332;9.860;2023-02-15T02:23:34;30.93;;;19.40;;
2522;SDS011;1272;53.332;9.860;2023-02-15T02:41:32;26.53;;;18.47;;
2522;SDS011;1272;53.332;9.860;2023-02-15T02:44:18;26.10;;;18.23;;
2522;SDS011;1272;53.332;9.860;2023-02-15T02:46:54;25.07;;;18.20;;
2522;SDS011;1272;53.332;9.860;2023-02-15T02:49:39;22.63;;;16.80;;
2522;SDS011;1272;53.332;9.860;2023-02-15T02:52:31;27.33;;;18.30;;
2522;SDS011;1272;53.332;9.860;2023-02-15T03:01:12;27.50;;;18.70;;
2522;SDS011;1272;53.332;9.860;2023-02-15T03:03:43;26.10;;;16.73;;
2522;SDS011;1272;53.332;9.860;2023-02-15T03:06:17;28.07;;;19.43;;
2522;SDS011;1272;53.332;9.860;2023-02-15T03:08:50;25.07;;;17.87;;
2522;SDS011;1272;53.332;9.860;2023-02-15T03:11:19;23.00;;;16.40;;
2522;SDS011;1272;53.332;9.860;2023-02-15T03:13:45;23.00;;;16.70;;
2522;SDS011;1272;53.332;9.860;2023-02-15T03:16:12;24.30;;;16.57;;
2522;SDS011;1272;53.332;9.860;2023-02-15T03:19:06;20.87;;;15.83;;
2522;SDS011;1272;53.332;9.860;2023-02-15T03:21:45;21.87;;;16.10;;
2522;SDS011;1272;53.332;9.860;2023-02-15T03:24:39;21.10;;;16.53;;
2522;SDS011;1272;53.332;9.860;2023-02-15T03:27:14;25.47;;;17.37;;
2522;SDS011;1272;53.332;9.860;2023-02-15T03:29:48;21.00;;;15.63;;
2522;SDS011;1272;53.332;9.860;2023-02-15T03:32:17;17.77;;;14.10;;
2522;SDS011;1272;53.332;9.860;2023-02-15T03:34:44;28.77;;;15.90;;
2522;SDS011;1272;53.332;9.860;2023-02-15T03:37:13;19.80;;;14.93;;
2522;SDS011;1272;53.332;9.860;2023-02-15T03:40:02;19.97;;;14.80;;
2522;SDS011;1272;53.332;9.860;2023-02-15T03:43:06;18.60;;;14.47;;
2522;SDS011;1272;53.332;9.860;2023-02-15T03:45:39;18.90;;;15.30;;
2522;SDS011;1272;53.332;9.860;2023-02-15T03:48:20;21.00;;;14.90;;
2522;SDS011;1272;53.332;9.860;2023-02-15T03:50:50;18.73;;;14.07;;
2522;SDS011;1272;53.332;9.860;2023-02-15T03:53:57;19.73;;;14.20;;
2522;SDS011;1272;53.332;9.860;2023-02-15T03:56:25;20.10;;;15.50;;
2522;SDS011;1272;53.332;9.860;2023-02-15T03:58:51;19.57;;;15.13;;
2522;SDS011;1272;53.332;9.860;2023-02-15T04:04:45;20.60;;;15.47;;
2522;SDS011;1272;53.332;9.860;2023-02-15T04:07:12;18.13;;;13.97;;
2522;SDS011;1272;53.332;9.860;2023-02-15T04:09:38;20.90;;;15.50;;
2522;SDS011;1272;53.332;9.860;2023-02-15T04:12:22;20.80;;;15.20;;
2522;SDS011;1272;53.332;9.860;2023-02-15T04:14:48;17.77;;;14.80;;
2522;SDS011;1272;53.332;9.860;2023-02-15T04:17:32;21.60;;;14.93;;
2522;SDS011;1272;53.332;9.860;2023-02-15T04:19:58;17.50;;;14.17;;
2522;SDS011;1272;53.332;9.860;2023-02-15T04:22:42;18.90;;;14.23;;
2522;SDS011;1272;53.332;9.860;2023-02-15T04:25:27;20.30;;;14.47;;
2522;SDS011;1272;53.332;9.860;2023-02-15T04:27:53;19.77;;;14.43;;
2522;SDS011;1272;53.332;9.860;2023-02-15T04:30:20;20.90;;;15.03;;
2522;SDS011;1272;53.332;9.860;2023-02-15T04:32:49;17.70;;;14.10;;
2522;SDS011;1272;53.332;9.860;2023-02-15T04:35:15;17.07;;;13.27;;
2522;SDS011;1272;53.332;9.860;2023-02-15T04:37:41;18.43;;;14.67;;
2522;SDS011;1272;53.332;9.860;2023-02-15T04:40:08;18.90;;;14.53;;
2522;SDS011;1272;53.332;9.860;2023-02-15T04:42:35;17.37;;;13.43;;
2522;SDS011;1272;53.332;9.860;2023-02-15T04:45:02;20.43;;;14.80;;
2522;SDS011;1272;53.332;9.860;2023-02-15T04:47:28;18.63;;;14.20;;
2522;SDS011;1272;53.332;9.860;2023-02-15T04:49:53;19.23;;;14.17;;
2522;SDS011;1272;53.332;9.860;2023-02-15T04:52:19;17.10;;;14.00;;
2522;SDS011;1272;53.332;9.860;2023-02-15T04:54:45;19.60;;;15.50;;
2522;SDS011;1272;53.332;9.860;2023-02-15T04:57:11;18.37;;;14.27;;
2522;SDS011;1272;53.332;9.860;2023-02-15T04:59:37;20.30;;;14.97;;
2522;SDS011;1272;53.332;9.860;2023-02-15T05:02:02;18.63;;;14.80;;
2522;SDS011;1272;53.332;9.860;2023-02-15T05:04:28;16.63;;;13.80;;
2522;SDS011;1272;53.332;9.860;2023-02-15T05:06:54;16.57;;;13.33;;
2522;SDS011;1272;53.332;9.860;2023-02-15T05:09:20;19.87;;;14.77;;
2522;SDS011;1272;53.332;9.860;2023-02-15T05:11:45;19.73;;;14.70;;
2522;SDS011;1272;53.332;9.860;2023-02-15T05:14:11;19.93;;;14.20;;
2522;SDS011;1272;53.332;9.860;2023-02-15T05:16:37;17.47;;;12.87;;
2522;SDS011;1272;53.332;9.860;2023-02-15T05:19:03;19.60;;;14.30;;
2522;SDS011;1272;53.332;9.860;2023-02-15T05:21:29;18.53;;;13.93;;
2522;SDS011;1272;53.332;9.860;2023-02-15T05:23:56;16.77;;;12.70;;
2522;SDS011;1272;53.332;9.860;2023-02-15T05:26:22;17.37;;;13.53;;
2522;SDS011;1272;53.332;9.860;2023-02-15T05:29:07;19.53;;;13.67;;
2522;SDS011;1272;53.332;9.860;2023-02-15T05:31:34;19.73;;;14.90;;
2522;SDS011;1272;53.332;9.860;2023-02-15T05:34:00;18.53;;;13.77;;
2522;SDS011;1272;53.332;9.860;2023-02-15T05:36:26;20.77;;;15.40;;
2522;SDS011;1272;53.332;9.860;2023-02-15T05:38:54;23.00;;;15.63;;
2522;SDS011;1272;53.332;9.860;2023-02-15T05:41:20;20.10;;;14.83;;
2522;SDS011;1272;53.332;9.860;2023-02-15T05:43:46;22.83;;;15.00;;
2522;SDS011;1272;53.332;9.860;2023-02-15T05:46:12;21.90;;;14.70;;
2522;SDS011;1272;53.332;9.860;2023-02-15T05:48:38;20.97;;;14.07;;
2522;SDS011;1272;53.332;9.860;2023-02-15T05:51:05;18.87;;;13.93;;
2522;SDS011;1272;53.332;9.860;2023-02-15T05:53:37;17.20;;;13.23;;
2522;SDS011;1272;53.332;9.860;2023-02-15T05:56:04;15.93;;;12.83;;
2522;SDS011;1272;53.332;9.860;2023-02-15T05:58:32;23.07;;;13.63;;
2522;SDS011;1272;53.332;9.860;2023-02-15T06:00:59;15.60;;;12.30;;
2522;SDS011;1272;53.332;9.860;2023-02-15T06:03:39;14.10;;;12.50;;
2522;SDS011;1272;53.332;9.860;2023-02-15T06:06:06;14.40;;;12.40;;
2522;SDS011;1272;53.332;9.860;2023-02-15T06:08:32;17.13;;;12.90;;
2522;SDS011;1272;53.332;9.860;2023-02-15T06:10:59;16.47;;;13.10;;
2522;SDS011;1272;53.332;9.860;2023-02-15T06:13:25;16.87;;;13.27;;
2522;SDS011;1272;53.332;9.860;2023-02-15T06:15:51;13.27;;;11.67;;
2522;SDS011;1272;53.332;9.860;2023-02-15T06:18:16;12.50;;;10.80;;
2522;SDS011;1272;53.332;9.860;2023-02-15T06:20:42;15.80;;;12.93;;
2522;SDS011;1272;53.332;9.860;2023-02-15T06:23:10;13.57;;;12.13;;
2522;SDS011;1272;53.332;9.860;2023-02-15T06:25:36;14.00;;;11.63;;
2522;SDS011;1272;53.332;9.860;2023-02-15T06:28:02;13.03;;;11.40;;
2522;SDS011;1272;53.332;9.860;2023-02-15T06:30:27;14.53;;;11.93;;
2522;SDS011;1272;53.332;9.860;2023-02-15T06:32:53;11.60;;;10.30;;
2522;SDS011;1272;53.332;9.860;2023-02-15T06:35:18;13.83;;;11.87;;
2522;SDS011;1272;53.332;9.860;2023-02-15T06:37:45;15.37;;;11.93;;
2522;SDS011;1272;53.332;9.860;2023-02-15T06:40:11;12.60;;;11.30;;
2522;SDS011;1272;53.332;9.860;2023-02-15T06:42:37;13.43;;;11.10;;
2522;SDS011;1272;53.332;9.860;2023-02-15T06:45:03;12.93;;;11.00;;
2522;SDS011;1272;53.332;9.860;2023-02-15T06:47:30;11.70;;;10.50;;
2522;SDS011;1272;53.332;9.860;2023-02-15T06:49:56;13.20;;;11.20;;
2522;SDS011;1272;53.332;9.860;2023-02-15T06:52:22;14.90;;;11.10;;
2522;SDS011;1272;53.332;9.860;2023-02-15T06:54:48;11.80;;;10.47;;
2522;SDS011;1272;53.332;9.860;2023-02-15T06:57:14;15.90;;;11.30;;
2522;SDS011;1272;53.332;9.860;2023-02-15T06:59:40;13.17;;;10.77;;
2522;SDS011;1272;53.332;9.860;2023-02-15T07:02:05;13.03;;;10.63;;
2522;SDS011;1272;53.332;9.860;2023-02-15T07:04:31;13.77;;;11.50;;
2522;SDS011;1272;53.332;9.860;2023-02-15T07:06:57;13.60;;;11.27;;
2522;SDS011;1272;53.332;9.860;2023-02-15T07:09:22;12.47;;;10.20;;
2522;SDS011;1272;53.332;9.860;2023-02-15T07:11:48;13.47;;;10.53;;
2522;SDS011;1272;53.332;9.860;2023-02-15T07:14:33;17.30;;;11.70;;
2522;SDS011;1272;53.332;9.860;2023-02-15T07:16:59;16.27;;;12.47;;
2522;SDS011;1272;53.332;9.860;2023-02-15T07:19:24;14.90;;;11.50;;
2522;SDS011;1272;53.332;9.860;2023-02-15T07:21:50;14.50;;;11.73;;
2522;SDS011;1272;53.332;9.860;2023-02-15T07:24:16;15.10;;;12.10;;
2522;SDS011;1272;53.332;9.860;2023-02-15T07:26:42;12.80;;;11.07;;
2522;SDS011;1272;53.332;9.860;2023-02-15T07:29:07;12.60;;;10.60;;
2522;SDS011;1272;53.332;9.860;2023-02-15T07:31:33;18.30;;;11.73;;
2522;SDS011;1272;53.332;9.860;2023-02-15T07:33:58;13.83;;;11.80;;
2522;SDS011;1272;53.332;9.860;2023-02-15T07:36:24;16.40;;;13.00;;
2522;SDS011;1272;53.332;9.860;2023-02-15T07:38:50;13.90;;;11.50;;
2522;SDS011;1272;53.332;9.860;2023-02-15T07:41:16;13.67;;;11.50;;
2522;SDS011;1272;53.332;9.860;2023-02-15T07:43:43;14.47;;;12.23;;
2522;SDS011;1272;53.332;9.860;2023-02-15T07:46:13;13.63;;;10.63;;
2522;SDS011;1272;53.332;9.860;2023-02-15T07:48:41;14.20;;;11.47;;
2522;SDS011;1272;53.332;9.860;2023-02-15T07:51:08;13.63;;;11.43;;
2522;SDS011;1272;53.332;9.860;2023-02-15T07:53:35;14.27;;;11.80;;
2522;SDS011;1272;53.332;9.860;2023-02-15T07:56:03;14.23;;;11.53;;
2522;SDS011;1272;53.332;9.860;2023-02-15T07:58:34;21.87;;;12.90;;
2522;SDS011;1272;53.332;9.860;2023-02-15T08:03:45;14.70;;;11.40;;
2522;SDS011;1272;53.332;9.860;2023-02-15T08:06:11;17.07;;;12.40;;
2522;SDS011;1272;53.332;9.860;2023-02-15T08:08:38;15.90;;;11.07;;
2522;SDS011;1272;53.332;9.860;2023-02-15T08:13:41;15.03;;;11.53;;
2522;SDS011;1272;53.332;9.860;2023-02-15T08:16:28;14.67;;;11.27;;
2522;SDS011;1272;53.332;9.860;2023-02-15T08:19:00;19.23;;;13.10;;
2522;SDS011;1272;53.332;9.860;2023-02-15T08:21:27;14.97;;;12.20;;
2522;SDS011;1272;53.332;9.860;2023-02-15T08:31:52;11.77;;;9.80;;
2522;SDS011;1272;53.332;9.860;2023-02-15T08:34:19;13.40;;;11.60;;
2522;SDS011;1272;53.332;9.860;2023-02-15T08:36:45;14.57;;;12.37;;
2522;SDS011;1272;53.332;9.860;2023-02-15T08:57:19;13.60;;;10.90;;
2522;SDS011;1272;53.332;9.860;2023-02-15T08:59:44;12.80;;;11.10;;
2522;SDS011;1272;53.332;9.860;2023-02-15T09:02:11;16.67;;;13.53;;
2522;SDS011;1272;53.332;9.860;2023-02-15T09:04:36;14.83;;;11.97;;
2522;SDS011;1272;53.332;9.860;2023-02-15T09:07:02;16.33;;;12.60;;
2522;SDS011;1272;53.332;9.860;2023-02-15T09:09:29;15.77;;;12.17;;
2522;SDS011;1272;53.332;9.860;2023-02-15T09:11:58;15.20;;;12.20;;
2522;SDS011;1272;53.332;9.860;2023-02-15T09:14:23;17.83;;;13.43;;
2522;SDS011;1272;53.332;9.860;2023-02-15T09:16:51;18.63;;;13.10;;
2522;SDS011;1272;53.332;9.860;2023-02-15T09:19:18;18.60;;;13.07;;
2522;SDS011;1272;53.332;9.860;2023-02-15T09:21:47;17.17;;;13.40;;
2522;SDS011;1272;53.332;9.860;2023-02-15T09:24:14;21.33;;;13.93;;
2522;SDS011;1272;53.332;9.860;2023-02-15T09:26:42;15.80;;;13.03;;
2522;SDS011;1272;53.332;9.860;2023-02-15T09:29:09;15.50;;;12.53;;
2522;SDS011;1272;53.332;9.860;2023-02-15T09:31:40;18.73;;;14.87;;
2522;SDS011;1272;53.332;9.860;2023-02-15T09:34:09;17.40;;;13.10;;
2522;SDS011;1272;53.332;9.860;2023-02-15T09:36:36;20.83;;;15.23;;
2522;SDS011;1272;53.332;9.860;2023-02-15T10:00:58;21.67;;;16.30;;
2522;SDS011;1272;53.332;9.860;2023-02-15T10:06:41;18.97;;;15.10;;
2522;SDS011;1272;53.332;9.860;2023-02-15T10:12:19;25.53;;;17.47;;
2522;SDS011;1272;53.332;9.860;2023-02-15T10:40:02;18.47;;;14.90;;
2522;SDS011;1272;53.332;9.860;2023-02-15T10:51:19;23.10;;;16.47;;
2522;SDS011;1272;53.332;9.860;2023-02-15T11:00:06;22.43;;;17.70;;
2522;SDS011;1272;53.332;9.860;2023-02-15T11:08:04;21.43;;;17.90;;
2522;SDS011;1272;53.332;9.860;2023-02-15T11:13:29;21.00;;;16.57;;
2522;SDS011;1272;53.332;9.860;2023-02-15T11:16:20;23.13;;;18.23;;
2522;SDS011;1272;53.332;9.860;2023-02-15T11:19:11;20.97;;;16.80;;
2522;SDS011;1272;53.332;9.860;2023-02-15T11:21:50;21.30;;;16.30;;
2522;SDS011;1272;53.332;9.860;2023-02-15T11:24:20;19.93;;;16.27;;
2522;SDS011;1272;53.332;9.860;2023-02-15T11:26:54;19.30;;;16.87;;
2522;SDS011;1272;53.332;9.860;2023-02-15T11:29:40;21.23;;;16.60;;
2522;SDS011;1272;53.332;9.860;2023-02-15T11:35:05;18.83;;;15.40;;
2522;SDS011;1272;53.332;9.860;2023-02-15T11:46:03;24.10;;;17.57;;
2522;SDS011;1272;53.332;9.860;2023-02-15T11:48:32;21.60;;;16.43;;
2522;SDS011;1272;53.332;9.860;2023-02-15T11:50:59;19.87;;;15.93;;
2522;SDS011;1272;53.332;9.860;2023-02-15T11:53:27;19.90;;;15.90;;
2522;SDS011;1272;53.332;9.860;2023-02-15T11:55:57;20.13;;;16.43;;
2522;SDS011;1272;53.332;9.860;2023-02-15T12:00:54;20.00;;;16.67;;
2522;SDS011;1272;53.332;9.860;2023-02-15T12:06:11;24.60;;;18.10;;
2522;SDS011;1272;53.332;9.860;2023-02-15T12:08:47;24.80;;;18.50;;
2522;SDS011;1272;53.332;9.860;2023-02-15T12:11:22;25.57;;;17.30;;
2522;SDS011;1272;53.332;9.860;2023-02-15T12:14:03;21.50;;;17.33;;
2522;SDS011;1272;53.332;9.860;2023-02-15T12:16:34;19.63;;;16.10;;
2522;SDS011;1272;53.332;9.860;2023-02-15T12:19:13;25.90;;;20.23;;
2522;SDS011;1272;53.332;9.860;2023-02-15T12:21:54;22.47;;;17.90;;
2522;SDS011;1272;53.332;9.860;2023-02-15T12:24:23;22.00;;;17.50;;
2522;SDS011;1272;53.332;9.860;2023-02-15T12:29:27;24.90;;;17.80;;
2522;SDS011;1272;53.332;9.860;2023-02-15T12:32:00;21.43;;;16.50;;
2522;SDS011;1272;53.332;9.860;2023-02-15T12:34:35;22.90;;;17.60;;
2522;SDS011;1272;53.332;9.860;2023-02-15T12:37:09;21.60;;;16.90;;
2522;SDS011;1272;53.332;9.860;2023-02-15T12:39:44;23.90;;;17.07;;
2522;SDS011;1272;53.332;9.860;2023-02-15T12:42:25;22.17;;;19.27;;
2522;SDS011;1272;53.332;9.860;2023-02-15T12:47:22;25.03;;;17.90;;
2522;SDS011;1272;53.332;9.860;2023-02-15T12:52:43;23.80;;;18.23;;
2522;SDS011;1272;53.332;9.860;2023-02-15T12:55:22;22.90;;;17.10;;
2522;SDS011;1272;53.332;9.860;2023-02-15T12:58:04;24.80;;;19.60;;
2522;SDS011;1272;53.332;9.860;2023-02-15T13:00:30;26.63;;;21.00;;
2522;SDS011;1272;53.332;9.860;2023-02-15T13:02:57;31.30;;;22.80;;
2522;SDS011;1272;53.332;9.860;2023-02-15T13:05:31;28.00;;;20.50;;
2522;SDS011;1272;53.332;9.860;2023-02-15T13:13:20;30.53;;;20.93;;
2522;SDS011;1272;53.332;9.860;2023-02-15T13:15:50;30.90;;;21.00;;
2522;SDS011;1272;53.332;9.860;2023-02-15T13:19:02;32.20;;;20.93;;
2522;SDS011;1272;53.332;9.860;2023-02-15T13:26:50;35.20;;;22.67;;
2522;SDS011;1272;53.332;9.860;2023-02-15T13:29:27;38.00;;;25.90;;
2522;SDS011;1272;53.332;9.860;2023-02-15T13:31:55;36.23;;;23.70;;
2522;SDS011;1272;53.332;9.860;2023-02-15T13:34:27;33.90;;;22.67;;
2522;SDS011;1272;53.332;9.860;2023-02-15T13:52:59;28.20;;;19.77;;
2522;SDS011;1272;53.332;9.860;2023-02-15T13:58:42;30.07;;;21.80;;
2522;SDS011;1272;53.332;9.860;2023-02-15T14:07:28;28.63;;;20.27;;
2522;SDS011;1272;53.332;9.860;2023-02-15T14:21:50;29.80;;;20.37;;
2522;SDS011;1272;53.332;9.860;2023-02-15T14:24:44;30.77;;;20.60;;
2522;SDS011;1272;53.332;9.860;2023-02-15T14:27:39;29.53;;;19.77;;
2522;SDS011;1272;53.332;9.860;2023-02-15T14:30:23;31.53;;;20.23;;
2522;SDS011;1272;53.332;9.860;2023-02-15T14:33:16;33.70;;;21.10;;
2522;SDS011;1272;53.332;9.860;2023-02-15T14:35:56;29.07;;;20.80;;
2522;SDS011;1272;53.332;9.860;2023-02-15T14:49:04;24.27;;;17.50;;
2522;SDS011;1272;53.332;9.860;2023-02-15T14:54:08;22.83;;;17.07;;
2522;SDS011;1272;53.332;9.860;2023-02-15T14:56:36;22.40;;;16.07;;
2522;SDS011;1272;53.332;9.860;2023-02-15T14:59:25;19.37;;;15.43;;
2522;SDS011;1272;53.332;9.860;2023-02-15T15:04:33;24.80;;;16.90;;
2522;SDS011;1272;53.332;9.860;2023-02-15T15:07:09;25.13;;;17.00;;
2522;SDS011;1272;53.332;9.860;2023-02-15T15:10:00;21.70;;;16.63;;
2522;SDS011;1272;53.332;9.860;2023-02-15T15:13:00;19.63;;;15.23;;
2522;SDS011;1272;53.332;9.860;2023-02-15T15:15:54;20.50;;;14.40;;
2522;SDS011;1272;53.332;9.860;2023-02-15T15:21:09;16.83;;;13.57;;
2522;SDS011;1272;53.332;9.860;2023-02-15T15:23:39;24.70;;;17.50;;
2522;SDS011;1272;53.332;9.860;2023-02-15T15:26:26;20.60;;;16.20;;
2522;SDS011;1272;53.332;9.860;2023-02-15T15:28:56;26.67;;;18.60;;
2522;SDS011;1272;53.332;9.860;2023-02-15T15:51:14;22.27;;;16.53;;
2522;SDS011;1272;53.332;9.860;2023-02-15T15:53:45;20.70;;;15.80;;
2522;SDS011;1272;53.332;9.860;2023-02-15T15:56:17;24.63;;;17.10;;
2522;SDS011;1272;53.332;9.860;2023-02-15T15:58:51;19.90;;;15.27;;
2522;SDS011;1272;53.332;9.860;2023-02-15T16:01:30;21.90;;;17.30;;
2522;SDS011;1272;53.332;9.860;2023-02-15T16:04:22;22.07;;;16.10;;
2522;SDS011;1272;53.332;9.860;2023-02-15T16:06:51;25.73;;;19.00;;
2522;SDS011;1272;53.332;9.860;2023-02-15T16:09:21;21.90;;;17.80;;
2522;SDS011;1272;53.332;9.860;2023-02-15T16:11:55;24.37;;;17.53;;
2522;SDS011;1272;53.332;9.860;2023-02-15T16:14:40;25.90;;;18.23;;
2522;SDS011;1272;53.332;9.860;2023-02-15T16:17:13;23.83;;;17.43;;
2522;SDS011;1272;53.332;9.860;2023-02-15T16:19:43;26.67;;;19.70;;
2522;SDS011;1272;53.332;9.860;2023-02-15T16:22:18;23.50;;;18.37;;
2522;SDS011;1272;53.332;9.860;2023-02-15T16:25:14;24.43;;;17.77;;
2522;SDS011;1272;53.332;9.860;2023-02-15T16:27:49;27.00;;;17.63;;
2522;SDS011;1272;53.332;9.860;2023-02-15T16:33:03;26.03;;;17.73;;
2522;SDS011;1272;53.332;9.860;2023-02-15T16:35:31;23.70;;;17.93;;
2522;SDS011;1272;53.332;9.860;2023-02-15T16:37:58;23.77;;;17.63;;
2522;SDS011;1272;53.332;9.860;2023-02-15T16:42:57;25.73;;;18.07;;
2522;SDS011;1272;53.332;9.860;2023-02-15T16:45:28;26.10;;;18.93;;
2522;SDS011;1272;53.332;9.860;2023-02-15T16:47:57;26.57;;;17.43;;
2522;SDS011;1272;53.332;9.860;2023-02-15T16:50:26;24.30;;;18.03;;
2522;SDS011;1272;53.332;9.860;2023-02-15T16:52:57;28.10;;;17.97;;
2522;SDS011;1272;53.332;9.860;2023-02-15T16:55:25;22.33;;;17.80;;
2522;SDS011;1272;53.332;9.860;2023-02-15T16:57:57;26.10;;;18.27;;
2522;SDS011;1272;53.332;9.860;2023-02-15T17:00:28;23.40;;;17.70;;
2522;SDS011;1272;53.332;9.860;2023-02-15T17:03:19;24.20;;;17.63;;
2522;SDS011;1272;53.332;9.860;2023-02-15T17:05:49;27.87;;;19.23;;
2522;SDS011;1272;53.332;9.860;2023-02-15T17:13:38;27.00;;;19.00;;
2522;SDS011;1272;53.332;9.860;2023-02-15T17:16:09;30.43;;;20.80;;
2522;SDS011;1272;53.332;9.860;2023-02-15T17:18:54;27.07;;;20.77;;
2522;SDS011;1272;53.332;9.860;2023-02-15T17:21:24;28.80;;;20.70;;
2522;SDS011;1272;53.332;9.860;2023-02-15T17:23:59;23.60;;;19.07;;
2522;SDS011;1272;53.332;9.860;2023-02-15T17:26:30;29.07;;;19.57;;
2522;SDS011;1272;53.332;9.860;2023-02-15T17:29:12;31.10;;;21.87;;
2522;SDS011;1272;53.332;9.860;2023-02-15T17:31:49;28.03;;;19.77;;
2522;SDS011;1272;53.332;9.860;2023-02-15T17:40:14;30.73;;;20.67;;
2522;SDS011;1272;53.332;9.860;2023-02-15T17:42:46;30.00;;;20.90;;
2522;SDS011;1272;53.332;9.860;2023-02-15T17:45:13;29.80;;;20.40;;
2522;SDS011;1272;53.332;9.860;2023-02-15T17:47:39;27.30;;;19.73;;
2522;SDS011;1272;53.332;9.860;2023-02-15T17:50:06;29.67;;;22.00;;
2522;SDS011;1272;53.332;9.860;2023-02-15T17:52:32;39.33;;;23.47;;
2522;SDS011;1272;53.332;9.860;2023-02-15T17:55:01;32.50;;;23.03;;
2522;SDS011;1272;53.332;9.860;2023-02-15T17:57:55;41.60;;;26.80;;
2522;SDS011;1272;53.332;9.860;2023-02-15T18:00:21;34.90;;;24.83;;
2522;SDS011;1272;53.332;9.860;2023-02-15T18:03:07;35.03;;;24.33;;
2522;SDS011;1272;53.332;9.860;2023-02-15T18:05:54;32.47;;;25.37;;
2522;SDS011;1272;53.332;9.860;2023-02-15T18:08:39;34.73;;;24.47;;
2522;SDS011;1272;53.332;9.860;2023-02-15T18:11:23;33.37;;;25.20;;
2522;SDS011;1272;53.332;9.860;2023-02-15T18:14:02;39.40;;;25.70;;
2522;SDS011;1272;53.332;9.860;2023-02-15T18:16:34;38.17;;;27.40;;
2522;SDS011;1272;53.332;9.860;2023-02-15T18:19:03;34.70;;;26.43;;
2522;SDS011;1272;53.332;9.860;2023-02-15T18:21:30;41.20;;;27.47;;
2522;SDS011;1272;53.332;9.860;2023-02-15T18:23:57;32.90;;;26.27;;
2522;SDS011;1272;53.332;9.860;2023-02-15T18:26:23;37.33;;;26.37;;
2522;SDS011;1272;53.332;9.860;2023-02-15T18:28:50;38.60;;;25.93;;
2522;SDS011;1272;53.332;9.860;2023-02-15T18:31:16;35.20;;;25.63;;
2522;SDS011;1272;53.332;9.860;2023-02-15T18:33:47;36.90;;;25.37;;
2522;SDS011;1272;53.332;9.860;2023-02-15T18:36:27;40.20;;;26.63;;
2522;SDS011;1272;53.332;9.860;2023-02-15T18:38:59;37.87;;;24.83;;
2522;SDS011;1272;53.332;9.860;2023-02-15T18:41:27;36.07;;;26.43;;
2522;SDS011;1272;53.332;9.860;2023-02-15T18:43:53;35.60;;;26.60;;
2522;SDS011;1272;53.332;9.860;2023-02-15T18:46:19;37.47;;;26.30;;
2522;SDS011;1272;53.332;9.860;2023-02-15T18:48:46;35.43;;;25.97;;
2522;SDS011;1272;53.332;9.860;2023-02-15T18:51:21;40.03;;;27.50;;
2522;SDS011;1272;53.332;9.860;2023-02-15T18:53:49;37.53;;;26.63;;
2522;SDS011;1272;53.332;9.860;2023-02-15T18:56:18;37.33;;;27.63;;
2522;SDS011;1272;53.332;9.860;2023-02-15T18:58:46;36.67;;;26.40;;
2522;SDS011;1272;53.332;9.860;2023-02-15T19:01:14;42.00;;;28.93;;
2522;SDS011;1272;53.332;9.860;2023-02-15T19:03:45;39.40;;;28.10;;
2522;SDS011;1272;53.332;9.860;2023-02-15T19:06:13;37.10;;;25.10;;
2522;SDS011;1272;53.332;9.860;2023-02-15T19:08:42;43.90;;;29.77;;
2522;SDS011;1272;53.332;9.860;2023-02-15T19:11:14;41.90;;;29.23;;
2522;SDS011;1272;53.332;9.860;2023-02-15T19:13:42;42.23;;;30.53;;
2522;SDS011;1272;53.332;9.860;2023-02-15T19:16:13;40.50;;;27.30;;
2522;SDS011;1272;53.332;9.860;2023-02-15T19:18:51;38.77;;;27.10;;
2522;SDS011;1272;53.332;9.860;2023-02-15T19:21:17;44.23;;;29.27;;
2522;SDS011;1272;53.332;9.860;2023-02-15T19:23:48;40.40;;;28.03;;
2522;SDS011;1272;53.332;9.860;2023-02-15T19:26:21;45.87;;;30.10;;
2522;SDS011;1272;53.332;9.860;2023-02-15T19:28:47;38.97;;;27.83;;
2522;SDS011;1272;53.332;9.860;2023-02-15T19:31:16;42.03;;;28.37;;
2522;SDS011;1272;53.332;9.860;2023-02-15T19:33:42;39.70;;;26.60;;
2522;SDS011;1272;53.332;9.860;2023-02-15T19:36:15;45.40;;;30.33;;
2522;SDS011;1272;53.332;9.860;2023-02-15T19:38:42;47.00;;;32.57;;
2522;SDS011;1272;53.332;9.860;2023-02-15T19:41:24;50.37;;;33.30;;